Current Weather

Southend

Southend, United Kingdom (EGMC)

Report from: Friday, February 23, 2024 7:50 PM GMT
Current time: Friday, February 23, 2024 8:18 PM GMT

Nearby weather – Weather history – Daily summaries
Weather forecast

Temperature4.0°C (39.2°F)
Wind chill2.7°C (36.9°F)
Dew point3.0°C (37.4°F)
Winds 3 kts (1.5 m/s, 3.5 mph) South-Southwest (200°)
Visibility6.2 mi. (10 km)
Clouds Few clouds 4,000 ft. (1,219 m)
Altimeter29.21 in.Hg (989 mB)
Relative humidity93 %
Density altitude-386 ft. (-118 m)
Flight conditions Visual Meteorological Conditions
Raw dataEGMC 231950Z 20003KT 9999 FEW040 04/03 Q0989
An error has occurred. This application may no longer respond until reloaded. Reload 🗙